Time;durP1;ratioP1;P1;durP2;ratioP2;P2;SDS_P1;SDS_P2;PMS_P1;PMS_P2;Temp;Humidity;BMP_temperature;BMP_pressure;BME280_temperature;BME280_humidity;BME280_pressure;Samples;Min_cycle;Max_cycle;Signal;HPM_P1;HPM_P2
2023/11/08 00:01:43;;;;;;;5.53;2.20;;;;;;;;;;5016509;28;20032;-69
2023/11/08 00:04:09;;;;;;;5.20;1.90;;;;;;;;;;5017024;28;20128;-71
2023/11/08 00:06:34;;;;;;;4.90;2.50;;;;;;;;;;5045989;28;20108;-71
2023/11/08 00:09:00;;;;;;;5.73;2.13;;;;;;;;;;5031618;28;20021;-71
2023/11/08 00:11:25;;;;;;;3.70;2.30;;;;;;;;;;5045951;28;20801;-72
2023/11/08 00:13:52;;;;;;;2.80;2.20;;;;;;;;;;5026978;28;20466;-70
2023/11/08 00:16:17;;;;;;;2.60;2.20;;;;;;;;;;5026279;28;20124;-70
2023/11/08 00:18:46;;;;;;;3.77;2.17;;;;;;;;;;5026208;28;20399;-69
2023/11/08 00:21:11;;;;;;;3.20;1.97;;;;;;;;;;5025961;28;20030;-72
2023/11/08 00:23:39;;;;;;;2.73;1.87;;;;;;;;;;5011641;28;20080;-72
2023/11/08 00:26:08;;;;;;;5.63;2.43;;;;;;;;;;5045676;28;20025;-72
2023/11/08 00:28:34;;;;;;;2.70;2.27;;;;;;;;;;5030534;28;20021;-69
2023/11/08 00:31:01;;;;;;;3.50;2.27;;;;;;;;;;5044822;28;20060;-71
2023/11/08 00:33:27;;;;;;;5.27;2.23;;;;;;;;;;5029813;28;20030;-72
2023/11/08 00:35:52;;;;;;;3.30;2.33;;;;;;;;;;5010983;28;20474;-71
2023/11/08 00:38:18;;;;;;;3.30;2.20;;;;;;;;;;5010652;28;20064;-71
2023/11/08 00:40:43;;;;;;;3.13;2.20;;;;;;;;;;5010460;28;20075;-69
2023/11/08 00:43:10;;;;;;;5.07;2.40;;;;;;;;;;5025396;28;20384;-71
2023/11/08 00:45:36;;;;;;;6.57;2.53;;;;;;;;;;5042019;28;20041;-72
2023/11/08 00:48:03;;;;;;;7.67;2.60;;;;;;;;;;5028775;28;20028;-70
2023/11/08 00:50:29;;;;;;;3.87;2.10;;;;;;;;;;5045424;28;20087;-71
2023/11/08 00:52:58;;;;;;;4.17;2.50;;;;;;;;;;5030877;28;20060;-71
2023/11/08 00:55:24;;;;;;;4.57;2.43;;;;;;;;;;5015713;28;20465;-71
2023/11/08 00:57:50;;;;;;;2.67;2.10;;;;;;;;;;5010880;28;20026;-71
2023/11/08 01:00:17;;;;;;;5.70;2.47;;;;;;;;;;5012473;28;20025;-72
2023/11/08 01:02:44;;;;;;;5.30;2.40;;;;;;;;;;5027827;28;20037;-70
2023/11/08 01:05:10;;;;;;;2.10;1.90;;;;;;;;;;5029120;28;20029;-70
2023/11/08 01:07:38;;;;;;;2.50;1.70;;;;;;;;;;5029875;28;20021;-71
2023/11/08 01:10:05;;;;;;;4.50;1.90;;;;;;;;;;5045433;28;20139;-71
2023/11/08 01:12:31;;;;;;;4.03;2.33;;;;;;;;;;5044855;28;20108;-71
2023/11/08 01:14:57;;;;;;;4.63;2.03;;;;;;;;;;5017508;28;20124;-70
2023/11/08 01:17:23;;;;;;;4.20;1.50;;;;;;;;;;5025314;28;20120;-69
2023/11/08 01:19:49;;;;;;;4.60;1.80;;;;;;;;;;5025317;28;20029;-70
2023/11/08 01:22:16;;;;;;;2.03;1.60;;;;;;;;;;5025200;28;20151;-71
2023/11/08 01:24:42;;;;;;;4.53;2.17;;;;;;;;;;5016922;28;20137;-69
2023/11/08 01:27:08;;;;;;;2.87;1.63;;;;;;;;;;5045041;28;20479;-70
2023/11/08 01:29:34;;;;;;;5.23;1.50;;;;;;;;;;5044688;28;20021;-71
2023/11/08 01:32:00;;;;;;;3.00;1.53;;;;;;;;;;5029711;28;20088;-73
2023/11/08 01:34:25;;;;;;;3.57;1.80;;;;;;;;;;5023058;28;20474;-72
2023/11/08 01:36:51;;;;;;;1.60;1.50;;;;;;;;;;5025055;28;20112;-72
2023/11/08 01:39:17;;;;;;;2.40;2.03;;;;;;;;;;5025208;28;20048;-71
2023/11/08 01:41:48;;;;;;;6.30;2.07;;;;;;;;;;5027064;28;20077;-70
2023/11/08 01:44:22;;;;;;;3.63;1.80;;;;;;;;;;5018133;28;20028;-70
2023/11/08 01:46:55;;;;;;;8.10;2.13;;;;;;;;;;5033438;28;20120;-70
2023/11/08 01:49:22;;;;;;;3.47;1.67;;;;;;;;;;5049688;28;20033;-71
2023/11/08 01:51:49;;;;;;;4.70;2.03;;;;;;;;;;5048664;28;20128;-73
2023/11/08 01:54:19;;;;;;;3.13;1.70;;;;;;;;;;5044537;28;20375;-70
2023/11/08 01:56:46;;;;;;;5.63;1.87;;;;;;;;;;5028546;28;20037;-70
2023/11/08 01:59:13;;;;;;;4.47;1.70;;;;;;;;;;5028597;28;20088;-69
2023/11/08 02:01:40;;;;;;;3.60;1.83;;;;;;;;;;5026911;28;20432;-70
2023/11/08 02:04:06;;;;;;;2.20;1.70;;;;;;;;;;5030695;28;20041;-70
2023/11/08 02:06:32;;;;;;;2.23;1.37;;;;;;;;;;5048450;28;20044;-71
2023/11/08 02:09:00;;;;;;;2.07;1.57;;;;;;;;;;5033257;28;20034;-71
2023/11/08 02:11:26;;;;;;;2.77;1.33;;;;;;;;;;5033322;28;20403;-70
2023/11/08 02:13:52;;;;;;;2.83;1.47;;;;;;;;;;5047149;28;20498;-70
2023/11/08 02:16:17;;;;;;;2.10;1.43;;;;;;;;;;5013530;28;20046;-70
2023/11/08 02:18:43;;;;;;;3.70;1.50;;;;;;;;;;5029283;28;20030;-69
2023/11/08 02:21:13;;;;;;;2.83;2.33;;;;;;;;;;5013347;28;20029;-70
2023/11/08 02:23:38;;;;;;;1.97;1.53;;;;;;;;;;5028305;28;20432;-72
2023/11/08 02:26:04;;;;;;;3.17;1.33;;;;;;;;;;5047072;28;20036;-71
2023/11/08 02:28:30;;;;;;;7.20;1.60;;;;;;;;;;5048463;28;20036;-70
2023/11/08 02:30:56;;;;;;;7.10;1.53;;;;;;;;;;5032685;28;20096;-69
2023/11/08 02:33:25;;;;;;;6.37;1.50;;;;;;;;;;5032552;28;20500;-71
2023/11/08 02:35:52;;;;;;;2.33;1.50;;;;;;;;;;5047157;28;20108;-72
2023/11/08 02:38:18;;;;;;;7.27;2.00;;;;;;;;;;5032754;28;20073;-71
2023/11/08 02:40:43;;;;;;;2.27;1.50;;;;;;;;;;5032704;28;20107;-71
2023/11/08 02:43:13;;;;;;;3.60;1.27;;;;;;;;;;5048155;28;20121;-73
2023/11/08 02:45:40;;;;;;;3.70;1.50;;;;;;;;;;5018334;28;20123;-70
2023/11/08 02:48:06;;;;;;;4.70;1.90;;;;;;;;;;5028825;28;20032;-72
2023/11/08 02:50:37;;;;;;;2.57;1.47;;;;;;;;;;5014568;28;20030;-71
2023/11/08 02:53:03;;;;;;;1.90;1.40;;;;;;;;;;5014103;28;20454;-71
2023/11/08 02:55:30;;;;;;;3.33;1.30;;;;;;;;;;5030177;28;20069;-73
2023/11/08 02:57:55;;;;;;;1.73;1.13;;;;;;;;;;5032490;28;20053;-71
2023/11/08 03:00:21;;;;;;;2.43;1.10;;;;;;;;;;5033849;28;20087;-70
2023/11/08 03:02:47;;;;;;;3.90;1.33;;;;;;;;;;5048046;28;20053;-70
2023/11/08 03:05:20;;;;;;;4.20;1.50;;;;;;;;;;5024292;28;20108;-70
2023/11/08 03:07:46;;;;;;;3.70;1.50;;;;;;;;;;5012775;28;20525;-71
2023/11/08 03:10:17;;;;;;;5.80;1.87;;;;;;;;;;5028034;28;20053;-70
2023/11/08 03:12:51;;;;;;;2.30;1.27;;;;;;;;;;5027195;28;20450;-71
2023/11/08 03:15:21;;;;;;;3.60;1.40;;;;;;;;;;5037819;28;20041;-69
2023/11/08 03:17:49;;;;;;;3.50;1.27;;;;;;;;;;5031817;28;20044;-70
2023/11/08 03:20:15;;;;;;;2.67;1.23;;;;;;;;;;5047322;28;20029;-70
2023/11/08 03:22:41;;;;;;;1.97;1.00;;;;;;;;;;5031911;28;20060;-71
2023/11/08 03:25:11;;;;;;;2.90;1.40;;;;;;;;;;5022755;28;20033;-71
2023/11/08 03:27:41;;;;;;;1.93;1.37;;;;;;;;;;5027114;28;20061;-71
2023/11/08 03:30:14;;;;;;;6.77;1.40;;;;;;;;;;5027724;28;20044;-72
2023/11/08 03:32:41;;;;;;;2.57;1.57;;;;;;;;;;5011597;28;20018;-70
2023/11/08 03:35:07;;;;;;;1.97;1.43;;;;;;;;;;5035717;28;20036;-70
2023/11/08 03:37:39;;;;;;;2.40;1.27;;;;;;;;;;5030371;28;20385;-70
2023/11/08 03:40:06;;;;;;;3.97;1.35;;;;;;;;;;5032019;28;20108;-70
2023/11/08 03:42:34;;;;;;;2.80;1.80;;;;;;;;;;5032870;28;20037;-70
2023/11/08 03:45:01;;;;;;;4.17;1.37;;;;;;;;;;5048724;28;20053;-70
2023/11/08 03:47:27;;;;;;;4.23;1.60;;;;;;;;;;5047889;28;20099;-71
2023/11/08 03:49:54;;;;;;;2.17;1.47;;;;;;;;;;5030581;28;20497;-71
2023/11/08 03:52:20;;;;;;;1.53;1.20;;;;;;;;;;5031438;28;20017;-70
2023/11/08 03:54:46;;;;;;;3.17;1.30;;;;;;;;;;5031239;28;20052;-71
2023/11/08 03:57:11;;;;;;;1.97;1.50;;;;;;;;;;5030925;28;20040;-71
2023/11/08 03:59:37;;;;;;;2.07;1.30;;;;;;;;;;5046288;28;20033;-70
2023/11/08 04:02:02;;;;;;;2.73;1.30;;;;;;;;;;5013731;28;20026;-72
2023/11/08 04:04:28;;;;;;;2.37;1.20;;;;;;;;;;5029285;28;20063;-71
2023/11/08 04:06:53;;;;;;;2.53;1.27;;;;;;;;;;5046161;28;20461;-69
2023/11/08 04:09:19;;;;;;;4.73;1.80;;;;;;;;;;5031228;28;20108;-70
2023/11/08 04:11:45;;;;;;;1.97;1.33;;;;;;;;;;5030935;28;20103;-70
2023/11/08 04:14:10;;;;;;;4.53;1.17;;;;;;;;;;5030185;28;20503;-71
2023/11/08 04:16:39;;;;;;;5.40;1.37;;;;;;;;;;5026429;28;20370;-71
2023/11/08 04:19:06;;;;;;;1.47;1.37;;;;;;;;;;5011360;28;20088;-72
2023/11/08 04:21:31;;;;;;;2.73;1.40;;;;;;;;;;5011809;28;20399;-71
2023/11/08 04:23:57;;;;;;;4.77;1.87;;;;;;;;;;5011804;28;20060;-70
2023/11/08 04:26:23;;;;;;;4.23;1.53;;;;;;;;;;5030836;28;20063;-70
2023/11/08 04:28:48;;;;;;;3.87;1.50;;;;;;;;;;5032039;28;20037;-71
2023/11/08 04:31:14;;;;;;;6.47;1.70;;;;;;;;;;5032014;28;20374;-71
2023/11/08 04:33:40;;;;;;;4.77;1.40;;;;;;;;;;5046702;28;20220;-70
2023/11/08 04:36:08;;;;;;;6.43;2.20;;;;;;;;;;5046862;28;20429;-70
2023/11/08 04:38:35;;;;;;;4.80;1.30;;;;;;;;;;5031366;28;20029;-70
2023/11/08 04:41:01;;;;;;;3.97;1.40;;;;;;;;;;5032094;28;20029;-70
2023/11/08 04:43:26;;;;;;;2.73;1.30;;;;;;;;;;5031669;28;20032;-69
2023/11/08 04:45:52;;;;;;;3.70;1.70;;;;;;;;;;5017421;28;20030;-70
2023/11/08 04:48:17;;;;;;;2.33;1.40;;;;;;;;;;5010673;28;20037;-69
2023/11/08 04:50:43;;;;;;;1.50;1.40;;;;;;;;;;5010506;28;20160;-71
2023/11/08 04:53:08;;;;;;;3.73;1.70;;;;;;;;;;5010480;28;20028;-71
2023/11/08 04:55:34;;;;;;;3.67;1.80;;;;;;;;;;5010920;28;20100;-71
2023/11/08 04:57:59;;;;;;;6.53;1.47;;;;;;;;;;5010511;28;20478;-70
2023/11/08 05:00:25;;;;;;;4.13;1.27;;;;;;;;;;5029115;28;20040;-71
2023/11/08 05:02:51;;;;;;;2.83;1.40;;;;;;;;;;5029634;28;20049;-70
2023/11/08 05:05:17;;;;;;;1.73;1.20;;;;;;;;;;5021508;28;20025;-71
2023/11/08 05:07:43;;;;;;;5.77;1.50;;;;;;;;;;5025561;28;20029;-72
2023/11/08 05:10:09;;;;;;;4.10;1.27;;;;;;;;;;5009690;28;20030;-71
2023/11/08 05:12:35;;;;;;;2.97;0.90;;;;;;;;;;5010246;28;20095;-70
2023/11/08 05:15:02;;;;;;;6.47;1.20;;;;;;;;;;5010166;28;20038;-70
2023/11/08 05:17:27;;;;;;;1.47;1.00;;;;;;;;;;5009726;28;20485;-71
2023/11/08 05:19:53;;;;;;;4.93;1.60;;;;;;;;;;5009667;28;20482;-70
2023/11/08 05:22:19;;;;;;;3.10;1.37;;;;;;;;;;5009927;28;20049;-70
2023/11/08 05:24:44;;;;;;;4.27;1.03;;;;;;;;;;5013096;28;20033;-69
2023/11/08 05:27:11;;;;;;;4.10;0.97;;;;;;;;;;5029820;28;20022;-70
2023/11/08 05:29:37;;;;;;;3.97;1.67;;;;;;;;;;5044908;28;20345;-70
2023/11/08 05:32:03;;;;;;;2.63;1.53;;;;;;;;;;5029710;28;20049;-71
2023/11/08 05:34:29;;;;;;;5.37;1.53;;;;;;;;;;5010859;28;20053;-69
2023/11/08 05:36:54;;;;;;;1.57;0.83;;;;;;;;;;5010297;28;20026;-70
2023/11/08 05:39:24;;;;;;;2.97;1.00;;;;;;;;;;5010296;28;20064;-71
2023/11/08 05:41:51;;;;;;;4.73;1.50;;;;;;;;;;5025665;28;20022;-71
2023/11/08 05:44:17;;;;;;;6.03;1.10;;;;;;;;;;5025284;28;20033;-70
2023/11/08 05:46:42;;;;;;;1.20;0.70;;;;;;;;;;5025159;28;20036;-70
2023/11/08 05:49:08;;;;;;;6.93;1.13;;;;;;;;;;5024809;28;20532;-71
2023/11/08 05:51:34;;;;;;;4.73;1.07;;;;;;;;;;5009648;28;20030;-70
2023/11/08 05:54:00;;;;;;;2.10;1.10;;;;;;;;;;5024504;28;20030;-70
2023/11/08 05:56:27;;;;;;;5.27;1.23;;;;;;;;;;5040847;28;20033;-71
2023/11/08 05:58:52;;;;;;;2.07;1.27;;;;;;;;;;5028767;28;20029;-70
2023/11/08 06:01:20;;;;;;;3.20;1.23;;;;;;;;;;5033290;28;20040;-71
2023/11/08 06:03:46;;;;;;;4.50;0.90;;;;;;;;;;5024356;28;20045;-70
2023/11/08 06:06:12;;;;;;;4.00;0.80;;;;;;;;;;5009378;28;20128;-70
2023/11/08 06:08:38;;;;;;;6.00;1.10;;;;;;;;;;5009276;28;20065;-70
2023/11/08 06:11:07;;;;;;;8.67;1.20;;;;;;;;;;5009400;28;20088;-71
2023/11/08 06:13:34;;;;;;;2.70;1.07;;;;;;;;;;5024292;28;20013;-71
2023/11/08 06:16:07;;;;;;;4.10;1.23;;;;;;;;;;5022867;28;20122;-71
2023/11/08 06:18:33;;;;;;;2.60;1.07;;;;;;;;;;5029030;28;20100;-71
2023/11/08 06:20:59;;;;;;;3.93;1.03;;;;;;;;;;5043337;28;20432;-70
2023/11/08 06:23:25;;;;;;;3.10;1.20;;;;;;;;;;5031203;28;20029;-73
2023/11/08 06:25:50;;;;;;;4.40;1.60;;;;;;;;;;5030239;28;20116;-70
2023/11/08 06:28:16;;;;;;;3.17;1.30;;;;;;;;;;5032856;28;20362;-70
2023/11/08 06:30:42;;;;;;;11.03;3.13;;;;;;;;;;5030959;28;20356;-71
2023/11/08 06:33:07;;;;;;;4.33;1.10;;;;;;;;;;5031263;28;20341;-72
2023/11/08 06:35:35;;;;;;;5.37;1.37;;;;;;;;;;5026545;28;20053;-71
2023/11/08 06:38:01;;;;;;;3.30;1.30;;;;;;;;;;5027092;28;20025;-71
2023/11/08 06:40:26;;;;;;;10.40;1.77;;;;;;;;;;5012289;28;20397;-69
2023/11/08 06:42:52;;;;;;;4.80;1.37;;;;;;;;;;5027287;28;20026;-70
2023/11/08 06:45:17;;;;;;;6.13;1.93;;;;;;;;;;5027389;28;20397;-70
2023/11/08 06:47:43;;;;;;;4.77;1.33;;;;;;;;;;5010691;28;20670;-72
2023/11/08 06:50:12;;;;;;;2.63;1.40;;;;;;;;;;5024820;28;20035;-72
2023/11/08 06:52:38;;;;;;;3.53;1.30;;;;;;;;;;5001453;28;20036;-71
2023/11/08 06:55:07;;;;;;;4.43;1.23;;;;;;;;;;5038782;28;20026;-71
2023/11/08 06:57:33;;;;;;;4.47;1.27;;;;;;;;;;5022447;28;20428;-72
2023/11/08 06:59:59;;;;;;;3.03;1.40;;;;;;;;;;5026164;28;20063;-72
2023/11/08 07:02:26;;;;;;;8.60;1.93;;;;;;;;;;5020298;28;20170;-71
2023/11/08 07:04:52;;;;;;;1.70;0.90;;;;;;;;;;5023756;28;20029;-72
2023/11/08 07:07:18;;;;;;;2.33;1.20;;;;;;;;;;5019453;28;20117;-70
2023/11/08 07:09:44;;;;;;;5.83;1.53;;;;;;;;;;5034864;28;20049;-73
2023/11/08 07:12:10;;;;;;;1.33;1.03;;;;;;;;;;5022984;28;20025;-72
2023/11/08 07:14:36;;;;;;;5.63;1.37;;;;;;;;;;5032287;28;20027;-70
2023/11/08 07:17:03;;;;;;;6.27;1.80;;;;;;;;;;5024966;28;20045;-71
2023/11/08 07:19:29;;;;;;;2.67;1.10;;;;;;;;;;5025937;28;20450;-70
2023/11/08 07:21:55;;;;;;;3.23;1.43;;;;;;;;;;5022217;28;20080;-69
2023/11/08 07:24:25;;;;;;;6.67;1.30;;;;;;;;;;5020520;28;20116;-71
2023/11/08 07:26:52;;;;;;;4.13;1.23;;;;;;;;;;5026474;28;20042;-70
2023/11/08 07:29:18;;;;;;;4.47;1.20;;;;;;;;;;5042131;28;20048;-71
2023/11/08 07:31:44;;;;;;;7.75;1.45;;;;;;;;;;5024210;28;20394;-71
2023/11/08 07:34:12;;;;;;;4.25;1.23;;;;;;;;;;5006167;28;20129;-71
2023/11/08 07:36:39;;;;;;;3.85;1.08;;;;;;;;;;5028840;28;20029;-69
2023/11/08 07:39:06;;;;;;;8.73;1.85;;;;;;;;;;5019583;28;20021;-71
2023/11/08 07:41:33;;;;;;;3.42;1.80;;;;;;;;;;5030953;28;20029;-70
2023/11/08 07:43:59;;;;;;;10.02;1.95;;;;;;;;;;5012455;28;20030;-70
2023/11/08 07:46:27;;;;;;;7.78;1.02;;;;;;;;;;5030784;28;20147;-71
2023/11/08 07:48:56;;;;;;;2.53;1.27;;;;;;;;;;5045560;28;20099;-69
2023/11/08 07:51:28;;;;;;;2.10;1.10;;;;;;;;;;5044333;28;20537;-72
2023/11/08 07:53:59;;;;;;;3.85;1.13;;;;;;;;;;5029553;28;20068;-73
2023/11/08 07:56:25;;;;;;;3.03;1.60;;;;;;;;;;5013362;28;20697;-71
2023/11/08 07:58:55;;;;;;;8.60;1.52;;;;;;;;;;5022763;28;20410;-70
2023/11/08 08:01:20;;;;;;;5.10;1.38;;;;;;;;;;5024179;28;20108;-71
2023/11/08 08:03:47;;;;;;;3.50;1.20;;;;;;;;;;5025357;28;20041;-72
2023/11/08 08:06:14;;;;;;;1.80;1.38;;;;;;;;;;5022732;28;20067;-72
2023/11/08 08:08:43;;;;;;;4.72;1.13;;;;;;;;;;5024461;28;20033;-70
2023/11/08 08:11:10;;;;;;;5.50;1.52;;;;;;;;;;5026289;28;20048;-71
2023/11/08 08:13:36;;;;;;;2.50;1.02;;;;;;;;;;5023542;28;20031;-71
2023/11/08 08:16:02;;;;;;;3.33;1.38;;;;;;;;;;5020834;28;20037;-73
2023/11/08 08:18:30;;;;;;;3.85;1.10;;;;;;;;;;5025616;28;20112;-70
2023/11/08 08:20:57;;;;;;;2.67;1.20;;;;;;;;;;5018727;28;20870;-70
2023/11/08 08:23:23;;;;;;;2.33;1.10;;;;;;;;;;5000576;28;20037;-72
2023/11/08 08:25:54;;;;;;;4.30;1.27;;;;;;;;;;5029966;28;20094;-72
2023/11/08 08:28:23;;;;;;;5.97;2.65;;;;;;;;;;5027047;28;20057;-70
2023/11/08 08:30:49;;;;;;;2.45;0.90;;;;;;;;;;5039437;28;20122;-69
2023/11/08 08:33:15;;;;;;;4.57;1.42;;;;;;;;;;5026875;28;20450;-71
2023/11/08 08:35:41;;;;;;;5.57;1.83;;;;;;;;;;5025740;28;20036;-72
2023/11/08 08:38:07;;;;;;;2.83;1.42;;;;;;;;;;5024236;28;20031;-69
2023/11/08 08:40:39;;;;;;;3.20;2.03;;;;;;;;;;5017740;28;20148;-72
2023/11/08 08:43:05;;;;;;;2.45;1.20;;;;;;;;;;5014430;28;20071;-71
2023/11/08 08:45:30;;;;;;;3.72;1.60;;;;;;;;;;5028982;28;20107;-70
2023/11/08 08:47:59;;;;;;;6.97;1.20;;;;;;;;;;5023634;28;20042;-70
2023/11/08 08:50:25;;;;;;;2.75;0.88;;;;;;;;;;5020093;28;20022;-70
2023/11/08 08:52:54;;;;;;;5.60;1.33;;;;;;;;;;5022539;28;20970;-71
2023/11/08 08:55:19;;;;;;;5.60;1.00;;;;;;;;;;5021644;28;20705;-72
2023/11/08 08:57:46;;;;;;;2.90;1.35;;;;;;;;;;5020689;28;20033;-72
2023/11/08 09:00:14;;;;;;;3.05;1.00;;;;;;;;;;5018804;28;20065;-73
2023/11/08 09:02:41;;;;;;;6.40;1.33;;;;;;;;;;5022403;28;20161;-71
2023/11/08 09:05:08;;;;;;;5.00;1.60;;;;;;;;;;5008840;28;20041;-70
2023/11/08 09:07:35;;;;;;;5.80;1.20;;;;;;;;;;5033270;28;20068;-69
2023/11/08 09:10:10;;;;;;;1.98;0.90;;;;;;;;;;5029360;28;20033;-70
2023/11/08 09:12:37;;;;;;;5.63;1.42;;;;;;;;;;5019830;28;20037;-72
2023/11/08 09:15:04;;;;;;;2.38;1.10;;;;;;;;;;5020379;28;20125;-73
2023/11/08 09:17:32;;;;;;;1.48;0.80;;;;;;;;;;5016722;28;20408;-72
2023/11/08 09:19:58;;;;;;;1.23;1.00;;;;;;;;;;5018546;28;20038;-72
2023/11/08 09:22:26;;;;;;;2.50;0.60;;;;;;;;;;5035496;28;20373;-70
2023/11/08 09:24:52;;;;;;;2.83;1.17;;;;;;;;;;5026140;28;20037;-70
2023/11/08 09:27:21;;;;;;;2.75;1.25;;;;;;;;;;5017048;28;20526;-72
2023/11/08 09:29:47;;;;;;;1.50;0.90;;;;;;;;;;5022287;28;20069;-72
2023/11/08 09:32:14;;;;;;;1.98;0.90;;;;;;;;;;5028904;28;20869;-72
2023/11/08 09:34:40;;;;;;;2.72;0.80;;;;;;;;;;5040216;28;20096;-71
2023/11/08 09:37:08;;;;;;;1.48;0.75;;;;;;;;;;5019241;28;20993;-72
2023/11/08 09:39:36;;;;;;;2.60;1.27;;;;;;;;;;4997058;28;20025;-73
2023/11/08 09:42:09;;;;;;;2.63;0.73;;;;;;;;;;5017867;28;20036;-71
2023/11/08 09:44:37;;;;;;;3.60;0.95;;;;;;;;;;5024900;28;20024;-72
2023/11/08 09:47:04;;;;;;;1.60;1.08;;;;;;;;;;5019771;28;20223;-73
2023/11/08 09:49:32;;;;;;;3.53;1.33;;;;;;;;;;5038863;28;20033;-71
2023/11/08 09:51:58;;;;;;;2.20;1.00;;;;;;;;;;5021691;28;20048;-71
2023/11/08 09:54:24;;;;;;;2.38;0.95;;;;;;;;;;5023161;28;20477;-72
2023/11/08 09:56:50;;;;;;;7.72;1.20;;;;;;;;;;5022957;28;20087;-71
2023/11/08 09:59:17;;;;;;;4.28;1.30;;;;;;;;;;5026448;28;20126;-70
2023/11/08 10:01:49;;;;;;;4.32;0.88;;;;;;;;;;5030013;28;20266;-71
2023/11/08 10:04:19;;;;;;;3.92;1.00;;;;;;;;;;5013332;28;20103;-70
2023/11/08 10:07:09;;;;;;;2.80;1.15;;;;;;;;;;5034754;28;20030;-73
2023/11/08 10:09:38;;;;;;;1.65;0.80;;;;;;;;;;5031185;28;20049;-70
2023/11/08 10:12:06;;;;;;;4.35;0.90;;;;;;;;;;5034447;28;20120;-71
2023/11/08 10:14:39;;;;;;;1.35;1.13;;;;;;;;;;5033347;28;20037;-72
2023/11/08 10:17:06;;;;;;;2.33;1.30;;;;;;;;;;5022655;28;21753;-73
2023/11/08 10:19:50;;;;;;;4.43;1.05;;;;;;;;;;5047698;28;20115;-71
2023/11/08 10:22:22;;;;;;;1.13;0.80;;;;;;;;;;5041212;28;21425;-72
2023/11/08 10:25:00;;;;;;;2.38;0.82;;;;;;;;;;5032166;28;20045;-72
2023/11/08 10:27:27;;;;;;;4.32;0.90;;;;;;;;;;5035395;28;20033;-71
2023/11/08 10:30:15;;;;;;;4.07;0.98;;;;;;;;;;5014600;28;20045;-70
2023/11/08 10:32:43;;;;;;;2.33;1.00;;;;;;;;;;5029582;28;20041;-70
2023/11/08 10:35:21;;;;;;;3.42;1.08;;;;;;;;;;5028507;28;20038;-71
2023/11/08 10:37:49;;;;;;;1.48;0.73;;;;;;;;;;5045342;28;20083;-70
2023/11/08 10:40:31;;;;;;;2.63;0.90;;;;;;;;;;5051938;28;20041;-72
2023/11/08 10:42:58;;;;;;;3.35;1.52;;;;;;;;;;5028598;28;20504;-74
2023/11/08 10:45:26;;;;;;;2.80;1.35;;;;;;;;;;5042541;28;20033;-72
2023/11/08 10:47:53;;;;;;;1.50;0.90;;;;;;;;;;5012313;28;20036;-71
2023/11/08 10:50:21;;;;;;;2.22;0.70;;;;;;;;;;5040062;28;20091;-73
2023/11/08 10:52:48;;;;;;;2.95;0.70;;;;;;;;;;5036038;28;20037;-71
2023/11/08 10:55:39;;;;;;;2.83;0.93;;;;;;;;;;5034643;28;20498;-72
2023/11/08 10:58:06;;;;;;;8.55;1.13;;;;;;;;;;5026734;28;20037;-74
2023/11/08 11:00:34;;;;;;;4.90;1.00;;;;;;;;;;5025200;28;20045;-70
2023/11/08 11:03:08;;;;;;;2.63;0.98;;;;;;;;;;5054274;28;20083;-75
2023/11/08 11:05:45;;;;;;;5.07;1.60;;;;;;;;;;5030581;28;20148;-75
2023/11/08 11:08:18;;;;;;;4.03;1.10;;;;;;;;;;5034794;28;20039;-74
2023/11/08 11:10:56;;;;;;;1.23;0.88;;;;;;;;;;5034253;28;20029;-71
2023/11/08 11:13:35;;;;;;;2.83;0.57;;;;;;;;;;5024970;28;20037;-72
2023/11/08 11:16:23;;;;;;;5.20;1.10;;;;;;;;;;5049563;28;20025;-75
2023/11/08 11:18:57;;;;;;;5.80;0.98;;;;;;;;;;5024257;28;20062;-71
2023/11/08 11:21:34;;;;;;;1.23;0.65;;;;;;;;;;5041130;28;20464;-73
2023/11/08 11:24:01;;;;;;;3.30;0.70;;;;;;;;;;5034447;28;20044;-73
2023/11/08 11:26:46;;;;;;;2.60;0.90;;;;;;;;;;5024942;28;20022;-74
2023/11/08 11:29:19;;;;;;;4.38;1.30;;;;;;;;;;5034364;28;20048;-73
2023/11/08 11:31:46;;;;;;;2.85;1.70;;;;;;;;;;5032278;28;20033;-73
2023/11/08 11:34:36;;;;;;;2.55;1.10;;;;;;;;;;5037953;28;20037;-75
2023/11/08 11:37:12;;;;;;;0.65;0.43;;;;;;;;;;5049669;28;20098;-74
2023/11/08 11:39:49;;;;;;;2.65;0.52;;;;;;;;;;5035786;28;20293;-75
2023/11/08 11:42:33;;;;;;;1.25;0.75;;;;;;;;;;5051945;28;20029;-72
2023/11/08 11:45:08;;;;;;;5.80;1.42;;;;;;;;;;5041425;28;20064;-77
2023/11/08 11:47:36;;;;;;;6.95;1.00;;;;;;;;;;5031894;28;20129;-74
2023/11/08 11:50:05;;;;;;;2.65;0.68;;;;;;;;;;5033628;28;20124;-75
2023/11/08 11:52:38;;;;;;;2.35;1.05;;;;;;;;;;5045828;28;20138;-75
2023/11/08 11:55:41;;;;;;;1.75;0.93;;;;;;;;;;5041822;28;20041;-75
2023/11/08 11:58:19;;;;;;;6.20;0.73;;;;;;;;;;5048677;28;20044;-73
2023/11/08 12:00:48;;;;;;;1.27;0.80;;;;;;;;;;5041143;28;20033;-74
2023/11/08 12:03:19;;;;;;;3.38;0.90;;;;;;;;;;5030356;28;20088;-76
2023/11/08 12:06:27;;;;;;;2.92;0.80;;;;;;;;;;5035837;28;20025;-73
2023/11/08 12:08:58;;;;;;;3.72;1.00;;;;;;;;;;5031942;28;20128;-74
2023/11/08 12:11:24;;;;;;;1.42;0.77;;;;;;;;;;5028148;28;20030;-72
2023/11/08 12:13:58;;;;;;;3.33;0.93;;;;;;;;;;5033030;28;20489;-74
2023/11/08 12:16:30;;;;;;;1.98;0.70;;;;;;;;;;5022169;28;20040;-73
2023/11/08 12:19:05;;;;;;;2.15;1.00;;;;;;;;;;5031573;28;20040;-73
2023/11/08 12:21:41;;;;;;;4.07;0.80;;;;;;;;;;5035420;28;20029;-74
2023/11/08 12:24:39;;;;;;;2.20;0.98;;;;;;;;;;5035857;28;20048;-75
2023/11/08 12:27:06;;;;;;;4.88;1.10;;;;;;;;;;5025521;28;20458;-74
2023/11/08 12:29:37;;;;;;;3.55;1.15;;;;;;;;;;5022597;28;20727;-73
2023/11/08 12:32:05;;;;;;;2.22;1.05;;;;;;;;;;5026709;28;20059;-74
2023/11/08 12:34:40;;;;;;;2.35;0.73;;;;;;;;;;5028423;28;20022;-75
2023/11/08 12:37:12;;;;;;;4.63;1.58;;;;;;;;;;5044679;28;20024;-75
2023/11/08 12:39:43;;;;;;;2.97;1.03;;;;;;;;;;5015498;28;20053;-73
2023/11/08 12:42:33;;;;;;;1.95;1.48;;;;;;;;;;5023874;28;20627;-74
2023/11/08 12:45:04;;;;;;;5.30;1.38;;;;;;;;;;5012228;28;20453;-73
2023/11/08 12:47:38;;;;;;;4.10;1.13;;;;;;;;;;5006482;28;20489;-72
2023/11/08 12:50:14;;;;;;;4.63;0.77;;;;;;;;;;5029219;28;20025;-73
2023/11/08 12:52:41;;;;;;;1.23;1.00;;;;;;;;;;5015736;28;20061;-74
2023/11/08 12:55:10;;;;;;;3.13;1.10;;;;;;;;;;4995994;28;20040;-74
2023/11/08 12:57:38;;;;;;;1.50;0.70;;;;;;;;;;5018278;28;20030;-76
2023/11/08 13:00:06;;;;;;;6.50;1.20;;;;;;;;;;5022513;28;20131;-73
2023/11/08 13:02:32;;;;;;;3.70;1.33;;;;;;;;;;5007400;28;20056;-72
2023/11/08 13:05:10;;;;;;;3.15;0.60;;;;;;;;;;5010077;28;20485;-73
2023/11/08 13:07:49;;;;;;;1.98;1.13;;;;;;;;;;5006354;28;20046;-74
2023/11/08 13:10:35;;;;;;;1.25;1.00;;;;;;;;;;5007692;28;20035;-74
2023/11/08 13:13:12;;;;;;;1.88;0.90;;;;;;;;;;5013068;28;20030;-74
2023/11/08 13:15:39;;;;;;;3.78;0.85;;;;;;;;;;5009784;28;20022;-76
2023/11/08 13:18:07;;;;;;;1.60;0.90;;;;;;;;;;5032481;28;20033;-71
2023/11/08 13:20:36;;;;;;;4.40;0.75;;;;;;;;;;5005272;28;20378;-72
2023/11/08 13:23:17;;;;;;;1.35;0.70;;;;;;;;;;5027900;28;20112;-75
2023/11/08 13:25:50;;;;;;;1.77;1.20;;;;;;;;;;5024694;28;20485;-74
2023/11/08 13:28:19;;;;;;;2.30;0.77;;;;;;;;;;5036763;28;20036;-73
2023/11/08 13:30:48;;;;;;;2.83;1.38;;;;;;;;;;5018616;28;20150;-75
2023/11/08 13:33:18;;;;;;;2.28;0.77;;;;;;;;;;5018549;28;20021;-75
2023/11/08 13:35:44;;;;;;;1.10;0.73;;;;;;;;;;5016062;28;20041;-74
2023/11/08 13:38:12;;;;;;;1.58;1.05;;;;;;;;;;5012885;28;20489;-73
2023/11/08 13:40:39;;;;;;;5.68;1.23;;;;;;;;;;5017246;28;20017;-74
2023/11/08 13:43:07;;;;;;;1.35;0.75;;;;;;;;;;5024901;28;20018;-73
2023/11/08 13:45:39;;;;;;;3.83;1.10;;;;;;;;;;5013190;28;20494;-74
2023/11/08 13:48:15;;;;;;;2.28;0.70;;;;;;;;;;5016922;28;20100;-73
2023/11/08 13:50:41;;;;;;;2.15;0.73;;;;;;;;;;5020177;28;20488;-74
2023/11/08 13:53:08;;;;;;;2.28;0.95;;;;;;;;;;5019515;28;20029;-75
2023/11/08 13:55:37;;;;;;;16.80;1.83;;;;;;;;;;5027779;28;20044;-71
2023/11/08 13:58:04;;;;;;;2.55;0.90;;;;;;;;;;5017373;28;20477;-75
2023/11/08 14:00:30;;;;;;;1.73;0.75;;;;;;;;;;5012838;28;20037;-73
2023/11/08 14:03:06;;;;;;;2.20;0.68;;;;;;;;;;5016012;28;20097;-74
2023/11/08 14:05:42;;;;;;;2.17;0.93;;;;;;;;;;5021922;28;20080;-76
2023/11/08 14:08:13;;;;;;;5.60;1.38;;;;;;;;;;5028384;28;20038;-73
2023/11/08 14:10:45;;;;;;;5.72;1.20;;;;;;;;;;5015460;28;20926;-76
2023/11/08 14:13:11;;;;;;;3.50;1.20;;;;;;;;;;4998125;28;20757;-74
2023/11/08 14:15:38;;;;;;;3.50;1.35;;;;;;;;;;5008228;28;20340;-73
2023/11/08 14:18:10;;;;;;;3.70;1.40;;;;;;;;;;5007805;28;20074;-73
2023/11/08 14:20:42;;;;;;;4.03;1.35;;;;;;;;;;5012179;28;20143;-76
2023/11/08 14:23:10;;;;;;;;;;;;;;;;;;5020539;28;20148;-74
2023/11/08 14:25:38;;;;;;;7.68;1.80;;;;;;;;;;5006320;28;19917;-74
2023/11/08 14:28:04;;;;;;;5.10;1.30;;;;;;;;;;4989576;28;20030;-72
2023/11/08 14:30:37;;;;;;;3.90;1.17;;;;;;;;;;4992584;28;20560;-75
2023/11/08 14:33:03;;;;;;;3.95;1.40;;;;;;;;;;4994471;28;20493;-75
2023/11/08 14:35:32;;;;;;;3.08;1.40;;;;;;;;;;5008647;28;20084;-75
2023/11/08 14:37:59;;;;;;;2.55;1.10;;;;;;;;;;5011283;28;20121;-72
2023/11/08 14:40:26;;;;;;;2.45;1.85;;;;;;;;;;5009691;28;20030;-71
2023/11/08 14:42:53;;;;;;;2.33;1.23;;;;;;;;;;5014647;28;20038;-73
2023/11/08 14:45:19;;;;;;;3.17;1.50;;;;;;;;;;5015712;28;20289;-72
2023/11/08 14:47:45;;;;;;;3.83;1.50;;;;;;;;;;5017428;28;20057;-75
2023/11/08 14:50:11;;;;;;;2.47;1.38;;;;;;;;;;5014981;28;20022;-74
2023/11/08 14:52:37;;;;;;;5.30;1.50;;;;;;;;;;5005538;28;20044;-72